sensor_id;sensor_type;location;lat;lon;timestamp;pressure;altitude;pressure_sealevel;temperature;humidity
47220;BME280;32961;51.936;4.788;2023-03-01T00:01:37;103203.13;;;-0.05;93.50
47220;BME280;32961;51.936;4.788;2023-03-01T00:04:05;103208.47;;;-0.06;93.24
47220;BME280;32961;51.936;4.788;2023-03-01T00:06:33;103195.25;;;-0.19;94.99
47220;BME280;32961;51.936;4.788;2023-03-01T00:09:01;103195.25;;;-0.19;95.05
47220;BME280;32961;51.936;4.788;2023-03-01T00:11:30;103205.03;;;-0.18;94.90
47220;BME280;32961;51.936;4.788;2023-03-01T00:14:01;103196.13;;;-0.17;94.67
47220;BME280;32961;51.936;4.788;2023-03-01T00:16:33;103197.88;;;-0.14;94.14
47220;BME280;32961;51.936;4.788;2023-03-01T00:19:01;103189.88;;;-0.15;93.99
47220;BME280;32961;51.936;4.788;2023-03-01T00:21:29;103189.03;;;-0.19;95.01
47220;BME280;32961;51.936;4.788;2023-03-01T00:23:58;103185.47;;;-0.18;94.38
47220;BME280;32961;51.936;4.788;2023-03-01T00:26:26;103189.94;;;-0.22;94.48
47220;BME280;32961;51.936;4.788;2023-03-01T00:28:54;103198.88;;;-0.24;95.41
47220;BME280;32961;51.936;4.788;2023-03-01T00:31:27;103195.31;;;-0.23;94.71
47220;BME280;32961;51.936;4.788;2023-03-01T00:33:57;103198.88;;;-0.26;95.33
47220;BME280;32961;51.936;4.788;2023-03-01T00:36:31;103191.75;;;-0.24;94.65
47220;BME280;32961;51.936;4.788;2023-03-01T00:38:59;103191.72;;;-0.22;94.92
47220;BME280;32961;51.936;4.788;2023-03-01T00:41:27;103184.69;;;-0.28;95.25
47220;BME280;32961;51.936;4.788;2023-03-01T00:43:55;103195.31;;;-0.25;95.19
47220;BME280;32961;51.936;4.788;2023-03-01T00:46:26;103183.72;;;-0.24;94.85
47220;BME280;32961;51.936;4.788;2023-03-01T00:48:57;103190.09;;;-0.34;96.09
47220;BME280;32961;51.936;4.788;2023-03-01T00:51:26;103189.22;;;-0.38;96.35
47220;BME280;32961;51.936;4.788;2023-03-01T00:53:55;103183.88;;;-0.38;96.60
47220;BME280;32961;51.936;4.788;2023-03-01T00:56:24;103182.97;;;-0.35;95.70
47220;BME280;32961;51.936;4.788;2023-03-01T00:58:52;103181.19;;;-0.33;95.94
47220;BME280;32961;51.936;4.788;2023-03-01T01:01:22;103181.19;;;-0.33;96.10
47220;BME280;32961;51.936;4.788;2023-03-01T01:03:53;103184.75;;;-0.34;95.80
47220;BME280;32961;51.936;4.788;2023-03-01T01:06:22;103182.94;;;-0.34;95.67
47220;BME280;32961;51.936;4.788;2023-03-01T01:08:52;103182.91;;;-0.29;95.85
47220;BME280;32961;51.936;4.788;2023-03-01T01:11:21;103179.38;;;-0.33;95.72
47220;BME280;32961;51.936;4.788;2023-03-01T01:13:49;103179.41;;;-0.34;95.69
47220;BME280;32961;51.936;4.788;2023-03-01T01:16:19;103179.38;;;-0.36;95.67
47220;BME280;32961;51.936;4.788;2023-03-01T01:18:47;103178.56;;;-0.41;95.59
47220;BME280;32961;51.936;4.788;2023-03-01T01:21:19;103180.47;;;-0.52;95.75
47220;BME280;32961;51.936;4.788;2023-03-01T01:23:47;103180.50;;;-0.54;96.30
47220;BME280;32961;51.936;4.788;2023-03-01T01:26:18;103175.13;;;-0.52;96.33
47220;BME280;32961;51.936;4.788;2023-03-01T01:28:46;103172.44;;;-0.51;96.56
47220;BME280;32961;51.936;4.788;2023-03-01T01:31:14;103163.53;;;-0.51;96.42
47220;BME280;32961;51.936;4.788;2023-03-01T01:33:43;103151.94;;;-0.49;96.53
47220;BME280;32961;51.936;4.788;2023-03-01T01:36:11;103142.13;;;-0.46;96.51
47220;BME280;32961;51.936;4.788;2023-03-01T01:38:40;103143.88;;;-0.44;96.35
47220;BME280;32961;51.936;4.788;2023-03-01T01:41:09;103137.63;;;-0.41;95.98
47220;BME280;32961;51.936;4.788;2023-03-01T01:43:40;103133.16;;;-0.41;96.05
47220;BME280;32961;51.936;4.788;2023-03-01T01:46:15;103129.63;;;-0.44;96.44
47220;BME280;32961;51.936;4.788;2023-03-01T01:48:50;103127.84;;;-0.42;96.42
47220;BME280;32961;51.936;4.788;2023-03-01T01:51:23;103128.69;;;-0.42;96.22
47220;BME280;32961;51.936;4.788;2023-03-01T01:53:54;103124.28;;;-0.43;95.79
47220;BME280;32961;51.936;4.788;2023-03-01T01:56:26;103118.91;;;-0.41;95.74
47220;BME280;32961;51.936;4.788;2023-03-01T01:58:56;103118.91;;;-0.41;95.22
47220;BME280;32961;51.936;4.788;2023-03-01T02:01:25;103123.41;;;-0.45;95.23
47220;BME280;32961;51.936;4.788;2023-03-01T02:03:53;103116.31;;;-0.46;95.03
47220;BME280;32961;51.936;4.788;2023-03-01T02:06:26;103115.44;;;-0.50;95.21
47220;BME280;32961;51.936;4.788;2023-03-01T02:09:00;103115.50;;;-0.53;95.58
47220;BME280;32961;51.936;4.788;2023-03-01T02:11:30;103129.81;;;-0.61;96.09
47220;BME280;32961;51.936;4.788;2023-03-01T02:13:59;103125.41;;;-0.62;96.61
47220;BME280;32961;51.936;4.788;2023-03-01T02:16:27;103123.63;;;-0.63;96.49
47220;BME280;32961;51.936;4.788;2023-03-01T02:18:56;103117.38;;;-0.64;96.46
47220;BME280;32961;51.936;4.788;2023-03-01T02:21:32;103101.38;;;-0.66;96.72
47220;BME280;32961;51.936;4.788;2023-03-01T02:26:56;103108.50;;;-0.68;97.35
47220;BME280;32961;51.936;4.788;2023-03-01T02:29:26;103107.63;;;-0.68;97.17
47220;BME280;32961;51.936;4.788;2023-03-01T02:31:57;103103.19;;;-0.66;97.31
47220;BME280;32961;51.936;4.788;2023-03-01T02:34:26;103106.75;;;-0.67;97.59
47220;BME280;32961;51.936;4.788;2023-03-01T02:36:57;103102.28;;;-0.67;97.54
47220;BME280;32961;51.936;4.788;2023-03-01T02:39:30;103105.88;;;-0.71;97.63
47220;BME280;32961;51.936;4.788;2023-03-01T02:42:01;103113.91;;;-0.72;97.75
47220;BME280;32961;51.936;4.788;2023-03-01T02:44:31;103116.59;;;-0.72;97.25
47220;BME280;32961;51.936;4.788;2023-03-01T02:47:01;103106.78;;;-0.75;97.08
47220;BME280;32961;51.936;4.788;2023-03-01T02:49:31;103096.13;;;-0.75;97.38
47220;BME280;32961;51.936;4.788;2023-03-01T02:52:22;103085.53;;;-0.83;97.47
47220;BME280;32961;51.936;4.788;2023-03-01T02:54:58;103095.31;;;-0.85;97.48
47220;BME280;32961;51.936;4.788;2023-03-01T02:57:30;103094.47;;;-0.85;97.32
47220;BME280;32961;51.936;4.788;2023-03-01T03:00:03;103104.25;;;-0.87;97.58
47220;BME280;32961;51.936;4.788;2023-03-01T03:02:35;103096.25;;;-0.89;97.40
47220;BME280;32961;51.936;4.788;2023-03-01T03:05:05;103091.84;;;-0.88;97.32
47220;BME280;32961;51.936;4.788;2023-03-01T03:07:35;103084.72;;;-0.91;97.32
47220;BME280;32961;51.936;4.788;2023-03-01T03:10:07;103085.63;;;-0.92;97.50
47220;BME280;32961;51.936;4.788;2023-03-01T03:12:37;103077.66;;;-0.97;97.65
47220;BME280;32961;51.936;4.788;2023-03-01T03:15:08;103076.81;;;-1.00;97.72
47220;BME280;32961;51.936;4.788;2023-03-01T03:17:36;103085.69;;;-0.98;97.56
47220;BME280;32961;51.936;4.788;2023-03-01T03:20:05;103083.00;;;-0.97;97.68
47220;BME280;32961;51.936;4.788;2023-03-01T03:22:37;103086.53;;;-0.94;97.83
47220;BME280;32961;51.936;4.788;2023-03-01T03:25:06;103077.63;;;-0.93;97.41
47220;BME280;32961;51.936;4.788;2023-03-01T03:27:36;103079.41;;;-0.92;97.63
47220;BME280;32961;51.936;4.788;2023-03-01T03:30:08;103084.75;;;-0.92;97.18
47220;BME280;32961;51.936;4.788;2023-03-01T03:32:38;103073.19;;;-0.96;97.19
47220;BME280;32961;51.936;4.788;2023-03-01T03:35:08;103074.09;;;-0.94;97.16
47220;BME280;32961;51.936;4.788;2023-03-01T03:37:37;103072.28;;;-0.93;97.01
47220;BME280;32961;51.936;4.788;2023-03-01T03:40:22;103074.94;;;-0.93;97.00
47220;BME280;32961;51.936;4.788;2023-03-01T03:42:50;103073.19;;;-0.96;96.75
47220;BME280;32961;51.936;4.788;2023-03-01T03:45:19;103075.91;;;-0.99;96.47
47220;BME280;32961;51.936;4.788;2023-03-01T03:47:48;103074.09;;;-0.97;96.17
47220;BME280;32961;51.936;4.788;2023-03-01T03:50:17;103069.69;;;-1.00;96.31
47220;BME280;32961;51.936;4.788;2023-03-01T03:52:45;103067.91;;;-0.99;96.19
47220;BME280;32961;51.936;4.788;2023-03-01T03:55:13;103059.03;;;-1.01;96.35
47220;BME280;32961;51.936;4.788;2023-03-01T03:57:47;103052.81;;;-1.02;95.81
47220;BME280;32961;51.936;4.788;2023-03-01T04:00:21;103058.16;;;-1.05;95.47
47220;BME280;32961;51.936;4.788;2023-03-01T04:02:50;103058.22;;;-1.08;95.19
47220;BME280;32961;51.936;4.788;2023-03-01T04:05:23;103047.56;;;-1.11;94.87
47220;BME280;32961;51.936;4.788;2023-03-01T04:07:51;103060.91;;;-1.13;94.75
47220;BME280;32961;51.936;4.788;2023-03-01T04:10:28;103062.75;;;-1.21;94.48
47220;BME280;32961;51.936;4.788;2023-03-01T04:12:57;103056.56;;;-1.21;94.24
47220;BME280;32961;51.936;4.788;2023-03-01T04:15:27;103061.91;;;-1.21;94.33
47220;BME280;32961;51.936;4.788;2023-03-01T04:17:55;103068.09;;;-1.21;94.29
47220;BME280;32961;51.936;4.788;2023-03-01T04:20:25;103063.63;;;-1.20;94.25
47220;BME280;32961;51.936;4.788;2023-03-01T04:22:58;103068.13;;;-1.24;94.25
47220;BME280;32961;51.936;4.788;2023-03-01T04:25:26;103066.38;;;-1.26;93.97
47220;BME280;32961;51.936;4.788;2023-03-01T04:27:54;103054.78;;;-1.25;93.84
47220;BME280;32961;51.936;4.788;2023-03-01T04:30:22;103061.91;;;-1.24;94.06
47220;BME280;32961;51.936;4.788;2023-03-01T04:32:53;103062.81;;;-1.25;93.81
47220;BME280;32961;51.936;4.788;2023-03-01T04:35:20;103057.50;;;-1.28;93.76
47220;BME280;32961;51.936;4.788;2023-03-01T04:37:49;103062.84;;;-1.32;93.54
47220;BME280;32961;51.936;4.788;2023-03-01T04:40:17;103047.75;;;-1.33;93.58
47220;BME280;32961;51.936;4.788;2023-03-01T04:42:45;103039.75;;;-1.33;93.88
47220;BME280;32961;51.936;4.788;2023-03-01T04:45:13;103046.00;;;-1.35;93.19
47220;BME280;32961;51.936;4.788;2023-03-01T04:47:42;103046.00;;;-1.35;93.32
47220;BME280;32961;51.936;4.788;2023-03-01T04:50:14;103043.31;;;-1.34;93.39
47220;BME280;32961;51.936;4.788;2023-03-01T04:52:43;103041.53;;;-1.33;93.01
47220;BME280;32961;51.936;4.788;2023-03-01T04:55:12;103036.22;;;-1.36;93.29
47220;BME280;32961;51.936;4.788;2023-03-01T04:57:40;103038.00;;;-1.37;93.04
47220;BME280;32961;51.936;4.788;2023-03-01T05:00:11;103038.94;;;-1.41;92.52
47220;BME280;32961;51.936;4.788;2023-03-01T05:02:49;103027.38;;;-1.41;92.43
47220;BME280;32961;51.936;4.788;2023-03-01T05:05:27;103022.94;;;-1.42;92.89
47220;BME280;32961;51.936;4.788;2023-03-01T05:07:56;103022.94;;;-1.42;92.95
47220;BME280;32961;51.936;4.788;2023-03-01T05:10:25;103025.63;;;-1.44;92.67
47220;BME280;32961;51.936;4.788;2023-03-01T05:12:55;103023.00;;;-1.47;92.50
47220;BME280;32961;51.936;4.788;2023-03-01T05:15:24;103034.56;;;-1.50;92.32
47220;BME280;32961;51.936;4.788;2023-03-01T05:17:53;103026.59;;;-1.53;92.04
47220;BME280;32961;51.936;4.788;2023-03-01T05:20:21;103012.38;;;-1.55;92.46
47220;BME280;32961;51.936;4.788;2023-03-01T05:22:57;103008.84;;;-1.57;92.64
47220;BME280;32961;51.936;4.788;2023-03-01T05:25:26;103001.72;;;-1.55;92.41
47220;BME280;32961;51.936;4.788;2023-03-01T05:27:59;103000.81;;;-1.54;93.02
47220;BME280;32961;51.936;4.788;2023-03-01T05:30:31;103001.69;;;-1.53;93.00
47220;BME280;32961;51.936;4.788;2023-03-01T05:32:59;102998.16;;;-1.55;93.19
47220;BME280;32961;51.936;4.788;2023-03-01T05:35:27;102988.38;;;-1.55;93.49
47220;BME280;32961;51.936;4.788;2023-03-01T05:38:00;102984.81;;;-1.54;93.08
47220;BME280;32961;51.936;4.788;2023-03-01T05:40:28;102983.06;;;-1.59;93.03
47220;BME280;32961;51.936;4.788;2023-03-01T05:42:56;102980.47;;;-1.66;93.06
47220;BME280;32961;51.936;4.788;2023-03-01T05:45:26;102977.84;;;-1.69;92.73
47220;BME280;32961;51.936;4.788;2023-03-01T05:47:54;102972.50;;;-1.67;93.34
47220;BME280;32961;51.936;4.788;2023-03-01T05:50:23;102982.25;;;-1.66;93.70
47220;BME280;32961;51.936;4.788;2023-03-01T05:52:56;102970.72;;;-1.65;93.49
47220;BME280;32961;51.936;4.788;2023-03-01T05:55:26;102967.16;;;-1.67;93.36
47220;BME280;32961;51.936;4.788;2023-03-01T05:57:55;102968.06;;;-1.70;93.19
47220;BME280;32961;51.936;4.788;2023-03-01T06:00:23;102968.16;;;-1.78;92.37
47220;BME280;32961;51.936;4.788;2023-03-01T06:02:50;102972.63;;;-1.83;92.50
47220;BME280;32961;51.936;4.788;2023-03-01T06:05:18;102975.28;;;-1.81;92.43
47220;BME280;32961;51.936;4.788;2023-03-01T06:07:46;102974.41;;;-1.85;92.74
47220;BME280;32961;51.936;4.788;2023-03-01T06:10:14;102973.50;;;-1.85;92.53
47220;BME280;32961;51.936;4.788;2023-03-01T06:12:44;102967.31;;;-1.86;92.42
47220;BME280;32961;51.936;4.788;2023-03-01T06:15:12;102973.50;;;-1.85;92.40
47220;BME280;32961;51.936;4.788;2023-03-01T06:17:42;102975.28;;;-1.84;92.59
47220;BME280;32961;51.936;4.788;2023-03-01T06:20:12;102977.97;;;-1.83;92.21
47220;BME280;32961;51.936;4.788;2023-03-01T06:22:41;102975.31;;;-1.83;92.42
47220;BME280;32961;51.936;4.788;2023-03-01T06:25:09;102986.84;;;-1.84;91.96
47220;BME280;32961;51.936;4.788;2023-03-01T06:27:39;102984.19;;;-1.85;91.98
47220;BME280;32961;51.936;4.788;2023-03-01T06:30:14;102983.31;;;-1.87;91.89
47220;BME280;32961;51.936;4.788;2023-03-01T06:32:42;102981.56;;;-1.90;91.48
47220;BME280;32961;51.936;4.788;2023-03-01T06:35:11;102983.31;;;-1.89;91.44
47220;BME280;32961;51.936;4.788;2023-03-01T06:37:40;102994.91;;;-1.90;91.37
47220;BME280;32961;51.936;4.788;2023-03-01T06:40:09;102982.47;;;-1.91;91.32
47220;BME280;32961;51.936;4.788;2023-03-01T06:42:39;102990.47;;;-1.91;91.13
47220;BME280;32961;51.936;4.788;2023-03-01T06:45:10;102990.47;;;-1.92;90.92
47220;BME280;32961;51.936;4.788;2023-03-01T06:47:38;102982.50;;;-1.96;90.69
47220;BME280;32961;51.936;4.788;2023-03-01T06:50:07;102990.50;;;-1.97;90.66
47220;BME280;32961;51.936;4.788;2023-03-01T06:52:35;102993.16;;;-1.97;90.57
47220;BME280;32961;51.936;4.788;2023-03-01T06:55:04;102999.38;;;-1.97;90.57
47220;BME280;32961;51.936;4.788;2023-03-01T06:57:31;102991.38;;;-1.97;90.36
47220;BME280;32961;51.936;4.788;2023-03-01T06:59:59;102986.94;;;-1.96;90.51
47220;BME280;32961;51.936;4.788;2023-03-01T07:02:28;102994.06;;;-2.00;90.23
47220;BME280;32961;51.936;4.788;2023-03-01T07:04:56;102998.50;;;-2.00;90.11
47220;BME280;32961;51.936;4.788;2023-03-01T07:07:24;102995.84;;;-2.00;90.66
47220;BME280;32961;51.936;4.788;2023-03-01T07:09:52;102997.63;;;-1.99;90.58
47220;BME280;32961;51.936;4.788;2023-03-01T07:12:20;102988.72;;;-1.98;90.55
47220;BME280;32961;51.936;4.788;2023-03-01T07:14:48;102994.94;;;-1.98;90.57
47220;BME280;32961;51.936;4.788;2023-03-01T07:17:16;102986.94;;;-1.98;90.48
47220;BME280;32961;51.936;4.788;2023-03-01T07:19:46;102994.00;;;-1.95;90.92
47220;BME280;32961;51.936;4.788;2023-03-01T07:22:14;102991.34;;;-1.95;90.83
47220;BME280;32961;51.936;4.788;2023-03-01T07:24:42;102998.47;;;-1.92;91.01
47220;BME280;32961;51.936;4.788;2023-03-01T07:27:10;102992.25;;;-1.93;91.10
47220;BME280;32961;51.936;4.788;2023-03-01T07:29:38;102992.22;;;-1.90;91.02
47220;BME280;32961;51.936;4.788;2023-03-01T07:32:06;102990.41;;;-1.88;91.42
47220;BME280;32961;51.936;4.788;2023-03-01T07:34:34;102996.63;;;-1.84;91.69
47220;BME280;32961;51.936;4.788;2023-03-01T07:37:03;102999.25;;;-1.80;91.89
47220;BME280;32961;51.936;4.788;2023-03-01T07:39:31;102993.00;;;-1.77;92.45
47220;BME280;32961;51.936;4.788;2023-03-01T07:41:59;103001.88;;;-1.73;92.93
47220;BME280;32961;51.936;4.788;2023-03-01T07:44:26;102993.84;;;-1.69;93.30
47220;BME280;32961;51.936;4.788;2023-03-01T07:46:54;103000.03;;;-1.65;93.73
47220;BME280;32961;51.936;4.788;2023-03-01T07:49:24;103006.19;;;-1.60;94.35
47220;BME280;32961;51.936;4.788;2023-03-01T07:51:52;103005.28;;;-1.56;94.79
47220;BME280;32961;51.936;4.788;2023-03-01T07:54:22;102998.13;;;-1.52;95.52
47220;BME280;32961;51.936;4.788;2023-03-01T07:56:49;102989.19;;;-1.45;95.38
47220;BME280;32961;51.936;4.788;2023-03-01T07:59:17;102994.50;;;-1.42;96.06
47220;BME280;32961;51.936;4.788;2023-03-01T08:01:45;102993.59;;;-1.39;97.25
47220;BME280;32961;51.936;4.788;2023-03-01T08:04:13;102993.56;;;-1.35;97.76
47220;BME280;32961;51.936;4.788;2023-03-01T08:06:41;102997.03;;;-1.28;98.21
47220;BME280;32961;51.936;4.788;2023-03-01T08:09:08;103001.41;;;-1.18;98.47
47220;BME280;32961;51.936;4.788;2023-03-01T08:11:37;103004.84;;;-1.09;99.08
47220;BME280;32961;51.936;4.788;2023-03-01T08:14:06;103002.03;;;-0.97;98.77
47220;BME280;32961;51.936;4.788;2023-03-01T08:16:34;102996.56;;;-0.83;99.06
47220;BME280;32961;51.936;4.788;2023-03-01T08:19:04;102999.88;;;-0.64;98.18
47220;BME280;32961;51.936;4.788;2023-03-01T08:21:32;102995.31;;;-0.53;98.20
47220;BME280;32961;51.936;4.788;2023-03-01T08:24:01;102996.06;;;-0.41;98.16
47220;BME280;32961;51.936;4.788;2023-03-01T08:26:29;102996.81;;;-0.31;98.10
47220;BME280;32961;51.936;4.788;2023-03-01T08:28:59;102996.69;;;-0.24;97.13
47220;BME280;32961;51.936;4.788;2023-03-01T08:31:29;102998.28;;;-0.10;96.93
47220;BME280;32961;51.936;4.788;2023-03-01T08:33:59;102990.09;;;0.02;97.01
47220;BME280;32961;51.936;4.788;2023-03-01T08:36:29;102995.19;;;0.18;97.23
47220;BME280;32961;51.936;4.788;2023-03-01T08:38:58;102992.31;;;0.30;96.78
47220;BME280;32961;51.936;4.788;2023-03-01T08:41:26;102986.81;;;0.39;96.44
47220;BME280;32961;51.936;4.788;2023-03-01T08:43:54;102985.75;;;0.50;95.88
47220;BME280;32961;51.936;4.788;2023-03-01T08:46:27;102976.59;;;0.63;94.98
47220;BME280;32961;51.936;4.788;2023-03-01T08:48:56;102980.75;;;0.81;94.66
47220;BME280;32961;51.936;4.788;2023-03-01T08:51:25;102982.28;;;0.94;92.46
47220;BME280;32961;51.936;4.788;2023-03-01T08:53:53;102978.47;;;1.06;89.71
47220;BME280;32961;51.936;4.788;2023-03-01T08:56:21;102979.16;;;1.16;87.98
47220;BME280;32961;51.936;4.788;2023-03-01T08:58:49;102973.59;;;1.27;85.87
47220;BME280;32961;51.936;4.788;2023-03-01T09:01:18;102962.63;;;1.39;86.20
47220;BME280;32961;51.936;4.788;2023-03-01T09:03:47;102970.38;;;1.53;85.21
47220;BME280;32961;51.936;4.788;2023-03-01T09:06:16;102963.94;;;1.60;85.42
47220;BME280;32961;51.936;4.788;2023-03-01T09:08:47;102970.72;;;1.77;84.77
47220;BME280;32961;51.936;4.788;2023-03-01T09:11:17;102963.13;;;1.96;81.89
47220;BME280;32961;51.936;4.788;2023-03-01T09:13:46;102945.00;;;2.06;81.16
47220;BME280;32961;51.936;4.788;2023-03-01T09:16:16;102951.22;;;2.08;79.55
47220;BME280;32961;51.936;4.788;2023-03-01T09:18:50;102942.88;;;2.20;78.57
47220;BME280;32961;51.936;4.788;2023-03-01T09:21:19;102943.53;;;2.30;78.40
47220;BME280;32961;51.936;4.788;2023-03-01T09:24:06;102939.72;;;2.39;76.86
47220;BME280;32961;51.936;4.788;2023-03-01T09:26:34;102941.25;;;2.49;76.38
47220;BME280;32961;51.936;4.788;2023-03-01T09:29:02;102932.78;;;2.65;76.55
47220;BME280;32961;51.936;4.788;2023-03-01T09:31:30;102930.09;;;2.65;73.32
47220;BME280;32961;51.936;4.788;2023-03-01T09:33:59;102933.28;;;2.79;75.30
47220;BME280;32961;51.936;4.788;2023-03-01T09:36:27;102931.41;;;2.83;73.85
47220;BME280;32961;51.936;4.788;2023-03-01T09:38:57;102928.72;;;2.83;70.84
47220;BME280;32961;51.936;4.788;2023-03-01T09:41:42;102932.63;;;3.02;70.86
47220;BME280;32961;51.936;4.788;2023-03-01T09:44:17;102932.34;;;3.13;70.41
47220;BME280;32961;51.936;4.788;2023-03-01T09:46:48;102928.44;;;3.24;69.33
47220;BME280;32961;51.936;4.788;2023-03-01T09:49:19;102926.16;;;3.41;69.42
47220;BME280;32961;51.936;4.788;2023-03-01T09:51:56;102925.25;;;3.41;67.27
47220;BME280;32961;51.936;4.788;2023-03-01T09:54:24;102930.25;;;3.53;69.34
47220;BME280;32961;51.936;4.788;2023-03-01T09:57:07;102928.84;;;3.69;69.20
47220;BME280;32961;51.936;4.788;2023-03-01T09:59:47;102919.88;;;3.71;67.79
47220;BME280;32961;51.936;4.788;2023-03-01T10:02:25;102915.06;;;3.80;68.61
47220;BME280;32961;51.936;4.788;2023-03-01T10:05:03;102916.47;;;3.92;67.47
47220;BME280;32961;51.936;4.788;2023-03-01T10:07:40;102908.03;;;4.03;67.14
47220;BME280;32961;51.936;4.788;2023-03-01T10:10:18;102914.13;;;4.10;67.32
47220;BME280;32961;51.936;4.788;2023-03-01T10:12:48;102908.31;;;4.22;67.18
47220;BME280;32961;51.936;4.788;2023-03-01T10:15:19;102911.81;;;4.24;67.66
47220;BME280;32961;51.936;4.788;2023-03-01T10:17:51;102910.72;;;4.30;60.47
47220;BME280;32961;51.936;4.788;2023-03-01T10:20:23;102919.53;;;4.35;61.43
47220;BME280;32961;51.936;4.788;2023-03-01T10:22:51;102919.31;;;4.41;59.14
47220;BME280;32961;51.936;4.788;2023-03-01T10:25:36;102914.75;;;4.43;58.26
47220;BME280;32961;51.936;4.788;2023-03-01T10:28:15;102896.47;;;4.53;60.13
47220;BME280;32961;51.936;4.788;2023-03-01T10:30:44;102890.63;;;4.65;59.13
47220;BME280;32961;51.936;4.788;2023-03-01T10:33:17;102896.69;;;4.72;57.92
47220;BME280;32961;51.936;4.788;2023-03-01T10:35:47;102900.09;;;4.77;58.33
47220;BME280;32961;51.936;4.788;2023-03-01T10:38:17;102889.16;;;4.82;58.51
47220;BME280;32961;51.936;4.788;2023-03-01T10:40:52;102890.56;;;4.92;59.60
47220;BME280;32961;51.936;4.788;2023-03-01T10:43:21;102889.41;;;5.00;56.35
47220;BME280;32961;51.936;4.788;2023-03-01T10:45:49;102888.53;;;4.99;56.95
47220;BME280;32961;51.936;4.788;2023-03-01T10:48:20;102884.88;;;5.00;55.09
47220;BME280;32961;51.936;4.788;2023-03-01T10:51:05;102881.00;;;5.07;54.71
47220;BME280;32961;51.936;4.788;2023-03-01T10:53:35;102872.66;;;5.15;54.91
47220;BME280;32961;51.936;4.788;2023-03-01T10:56:07;102866.97;;;5.23;54.53
47220;BME280;32961;51.936;4.788;2023-03-01T10:58:37;102860.38;;;5.30;53.47
47220;BME280;32961;51.936;4.788;2023-03-01T11:01:06;102855.75;;;5.34;52.65
47220;BME280;32961;51.936;4.788;2023-03-01T11:04:09;102847.53;;;5.37;53.33
47220;BME280;32961;51.936;4.788;2023-03-01T11:06:39;102839.19;;;5.43;52.98
47220;BME280;32961;51.936;4.788;2023-03-01T11:09:15;102828.41;;;5.43;51.80
47220;BME280;32961;51.936;4.788;2023-03-01T11:11:44;102825.34;;;5.52;52.29
47220;BME280;32961;51.936;4.788;2023-03-01T11:14:16;102825.94;;;5.60;52.77
47220;BME280;32961;51.936;4.788;2023-03-01T11:17:01;102825.09;;;5.58;51.67
47220;BME280;32961;51.936;4.788;2023-03-01T11:19:29;102826.84;;;5.59;52.13
47220;BME280;32961;51.936;4.788;2023-03-01T11:22:02;102820.19;;;5.68;51.95
47220;BME280;32961;51.936;4.788;2023-03-01T11:24:37;102821.53;;;5.80;51.63
47220;BME280;32961;51.936;4.788;2023-03-01T11:27:16;102822.38;;;5.81;50.46
47220;BME280;32961;51.936;4.788;2023-03-01T11:29:46;102817.81;;;5.83;50.35
47220;BME280;32961;51.936;4.788;2023-03-01T11:32:19;102819.59;;;5.82;50.08
47220;BME280;32961;51.936;4.788;2023-03-01T11:34:54;102813.34;;;5.82;50.26
47220;BME280;32961;51.936;4.788;2023-03-01T11:37:33;102811.97;;;5.93;50.27
47220;BME280;32961;51.936;4.788;2023-03-01T11:40:12;102804.66;;;5.95;51.21
47220;BME280;32961;51.936;4.788;2023-03-01T11:42:48;102804.03;;;6.11;50.83
47220;BME280;32961;51.936;4.788;2023-03-01T11:45:23;102805.38;;;6.21;50.24
47220;BME280;32961;51.936;4.788;2023-03-01T11:48:07;102795.31;;;6.25;48.87
47220;BME280;32961;51.936;4.788;2023-03-01T11:50:44;102796.53;;;6.38;49.43
47220;BME280;32961;51.936;4.788;2023-03-01T11:53:39;102795.22;;;6.26;46.81
47220;BME280;32961;51.936;4.788;2023-03-01T11:56:18;102783.38;;;6.31;46.70
47220;BME280;32961;51.936;4.788;2023-03-01T12:04:54;102785.91;;;6.54;46.32
47220;BME280;32961;51.936;4.788;2023-03-01T12:07:29;102780.38;;;6.57;47.53
47220;BME280;32961;51.936;4.788;2023-03-01T12:10:19;102774.50;;;6.67;45.93
47220;BME280;32961;51.936;4.788;2023-03-01T12:12:58;102761.81;;;6.69;47.09
47220;BME280;32961;51.936;4.788;2023-03-01T12:18:34;102768.91;;;6.71;46.95
47220;BME280;32961;51.936;4.788;2023-03-01T12:21:17;102762.13;;;6.82;46.75
47220;BME280;32961;51.936;4.788;2023-03-01T12:24:01;102762.06;;;6.83;47.69
47220;BME280;32961;51.936;4.788;2023-03-01T12:26:34;102765.31;;;6.90;46.88
47220;BME280;32961;51.936;4.788;2023-03-01T12:29:25;102761.56;;;6.94;46.70
47220;BME280;32961;51.936;4.788;2023-03-01T12:32:15;102755.13;;;6.97;46.28
47220;BME280;32961;51.936;4.788;2023-03-01T12:34:59;102750.34;;;7.02;47.43
47220;BME280;32961;51.936;4.788;2023-03-01T12:37:36;102748.63;;;7.18;47.45
47220;BME280;32961;51.936;4.788;2023-03-01T12:43:22;102746.19;;;7.14;47.20
47220;BME280;32961;51.936;4.788;2023-03-01T12:46:07;102746.41;;;7.09;46.00
47220;BME280;32961;51.936;4.788;2023-03-01T12:48:46;102742.75;;;7.10;46.07
47220;BME280;32961;51.936;4.788;2023-03-01T12:51:18;102741.44;;;7.19;46.25
47220;BME280;32961;51.936;4.788;2023-03-01T12:53:49;102743.41;;;7.15;47.28
47220;BME280;32961;51.936;4.788;2023-03-01T12:56:21;102727.81;;;7.20;47.03
47220;BME280;32961;51.936;4.788;2023-03-01T12:58:59;102731.47;;;7.19;46.34
47220;BME280;32961;51.936;4.788;2023-03-01T13:01:40;102728.63;;;7.22;46.60
47220;BME280;32961;51.936;4.788;2023-03-01T13:07:23;102716.69;;;7.27;46.83
47220;BME280;32961;51.936;4.788;2023-03-01T13:09:58;102709.59;;;7.43;46.77
47220;BME280;32961;51.936;4.788;2023-03-01T13:12:52;102708.59;;;7.44;44.13
47220;BME280;32961;51.936;4.788;2023-03-01T13:15:35;102702.56;;;7.39;44.56
47220;BME280;32961;51.936;4.788;2023-03-01T13:18:29;102697.19;;;7.57;43.81
47220;BME280;32961;51.936;4.788;2023-03-01T13:20:59;102689.53;;;7.47;42.38
47220;BME280;32961;51.936;4.788;2023-03-01T13:23:30;102687.44;;;7.52;42.03
47220;BME280;32961;51.936;4.788;2023-03-01T13:26:09;102685.78;;;7.50;41.20
47220;BME280;32961;51.936;4.788;2023-03-01T13:31:58;102669.97;;;7.42;39.10
47220;BME280;32961;51.936;4.788;2023-03-01T13:35:00;102672.31;;;7.31;38.25
47220;BME280;32961;51.936;4.788;2023-03-01T13:37:31;102671.34;;;7.14;39.57